sensor_id;sensor_type;location;lat;lon;timestamp;P1;durP1;ratioP1;P2;durP2;ratioP2
16127;SDS011;8168;49.036;7.690;2023-06-26T00:02:12;6.37;;;4.93;;
16127;SDS011;8168;49.036;7.690;2023-06-26T00:04:43;6.53;;;4.53;;
16127;SDS011;8168;49.036;7.690;2023-06-26T00:07:13;7.67;;;5.03;;
16127;SDS011;8168;49.036;7.690;2023-06-26T00:09:44;6.43;;;4.93;;
16127;SDS011;8168;49.036;7.690;2023-06-26T00:12:15;5.10;;;4.50;;
16127;SDS011;8168;49.036;7.690;2023-06-26T00:14:45;5.57;;;4.47;;
16127;SDS011;8168;49.036;7.690;2023-06-26T00:17:16;7.47;;;4.40;;
16127;SDS011;8168;49.036;7.690;2023-06-26T00:19:47;5.50;;;4.63;;
16127;SDS011;8168;49.036;7.690;2023-06-26T00:22:18;6.60;;;5.10;;
16127;SDS011;8168;49.036;7.690;2023-06-26T00:24:49;6.17;;;5.23;;
16127;SDS011;8168;49.036;7.690;2023-06-26T00:27:19;5.50;;;4.80;;
16127;SDS011;8168;49.036;7.690;2023-06-26T00:29:50;5.37;;;4.53;;
16127;SDS011;8168;49.036;7.690;2023-06-26T00:32:22;5.50;;;4.80;;
16127;SDS011;8168;49.036;7.690;2023-06-26T00:34:53;5.30;;;4.80;;
16127;SDS011;8168;49.036;7.690;2023-06-26T00:37:23;6.07;;;4.77;;
16127;SDS011;8168;49.036;7.690;2023-06-26T00:39:54;6.30;;;4.97;;
16127;SDS011;8168;49.036;7.690;2023-06-26T00:42:25;5.73;;;4.60;;
16127;SDS011;8168;49.036;7.690;2023-06-26T00:44:55;8.53;;;5.03;;
16127;SDS011;8168;49.036;7.690;2023-06-26T00:47:26;5.23;;;4.73;;
16127;SDS011;8168;49.036;7.690;2023-06-26T00:49:57;7.80;;;5.03;;
16127;SDS011;8168;49.036;7.690;2023-06-26T00:52:28;5.73;;;4.93;;
16127;SDS011;8168;49.036;7.690;2023-06-26T00:54:58;6.67;;;5.30;;
16127;SDS011;8168;49.036;7.690;2023-06-26T00:57:30;5.73;;;4.80;;
16127;SDS011;8168;49.036;7.690;2023-06-26T01:00:01;5.70;;;5.07;;
16127;SDS011;8168;49.036;7.690;2023-06-26T01:02:34;5.67;;;4.60;;
16127;SDS011;8168;49.036;7.690;2023-06-26T01:05:04;6.20;;;4.80;;
16127;SDS011;8168;49.036;7.690;2023-06-26T01:07:36;6.30;;;4.93;;
16127;SDS011;8168;49.036;7.690;2023-06-26T01:10:07;6.33;;;4.67;;
16127;SDS011;8168;49.036;7.690;2023-06-26T01:12:38;5.37;;;4.67;;
16127;SDS011;8168;49.036;7.690;2023-06-26T01:15:09;5.77;;;4.83;;
16127;SDS011;8168;49.036;7.690;2023-06-26T01:17:40;5.93;;;5.07;;
16127;SDS011;8168;49.036;7.690;2023-06-26T01:20:15;5.70;;;5.10;;
16127;SDS011;8168;49.036;7.690;2023-06-26T01:26:06;7.37;;;5.27;;
16127;SDS011;8168;49.036;7.690;2023-06-26T01:28:38;6.57;;;5.23;;
16127;SDS011;8168;49.036;7.690;2023-06-26T01:31:12;5.87;;;5.23;;
16127;SDS011;8168;49.036;7.690;2023-06-26T01:33:43;6.27;;;5.27;;
16127;SDS011;8168;49.036;7.690;2023-06-26T01:36:15;6.30;;;5.23;;
16127;SDS011;8168;49.036;7.690;2023-06-26T01:38:46;5.87;;;5.10;;
16127;SDS011;8168;49.036;7.690;2023-06-26T01:41:17;5.70;;;5.00;;
16127;SDS011;8168;49.036;7.690;2023-06-26T01:55:51;6.60;;;5.40;;
16127;SDS011;8168;49.036;7.690;2023-06-26T01:58:36;5.57;;;4.87;;
16127;SDS011;8168;49.036;7.690;2023-06-26T02:01:11;7.03;;;5.23;;
16127;SDS011;8168;49.036;7.690;2023-06-26T02:03:42;5.73;;;5.17;;
16127;SDS011;8168;49.036;7.690;2023-06-26T02:06:12;6.10;;;4.50;;
16127;SDS011;8168;49.036;7.690;2023-06-26T02:08:43;6.10;;;5.07;;
16127;SDS011;8168;49.036;7.690;2023-06-26T02:11:14;5.23;;;4.50;;
16127;SDS011;8168;49.036;7.690;2023-06-26T02:13:44;5.60;;;4.80;;
16127;SDS011;8168;49.036;7.690;2023-06-26T02:16:15;6.60;;;5.23;;
16127;SDS011;8168;49.036;7.690;2023-06-26T02:18:46;5.60;;;5.00;;
16127;SDS011;8168;49.036;7.690;2023-06-26T02:21:17;5.77;;;5.17;;
16127;SDS011;8168;49.036;7.690;2023-06-26T02:23:47;5.90;;;5.07;;
16127;SDS011;8168;49.036;7.690;2023-06-26T02:26:18;6.27;;;5.13;;
16127;SDS011;8168;49.036;7.690;2023-06-26T02:28:48;5.03;;;4.53;;
16127;SDS011;8168;49.036;7.690;2023-06-26T02:31:19;6.47;;;5.37;;
16127;SDS011;8168;49.036;7.690;2023-06-26T02:33:50;7.00;;;4.97;;
16127;SDS011;8168;49.036;7.690;2023-06-26T02:36:20;6.13;;;5.03;;
16127;SDS011;8168;49.036;7.690;2023-06-26T02:38:54;7.00;;;5.40;;
16127;SDS011;8168;49.036;7.690;2023-06-26T02:41:24;6.80;;;5.17;;
16127;SDS011;8168;49.036;7.690;2023-06-26T02:43:55;6.60;;;5.43;;
16127;SDS011;8168;49.036;7.690;2023-06-26T02:46:25;5.93;;;5.23;;
16127;SDS011;8168;49.036;7.690;2023-06-26T02:48:56;5.23;;;4.73;;
16127;SDS011;8168;49.036;7.690;2023-06-26T02:51:27;5.73;;;4.93;;
16127;SDS011;8168;49.036;7.690;2023-06-26T02:53:57;5.90;;;5.30;;
16127;SDS011;8168;49.036;7.690;2023-06-26T02:56:28;7.90;;;5.60;;
16127;SDS011;8168;49.036;7.690;2023-06-26T02:58:58;6.73;;;6.03;;
16127;SDS011;8168;49.036;7.690;2023-06-26T03:01:29;7.60;;;6.90;;
16127;SDS011;8168;49.036;7.690;2023-06-26T03:04:00;6.37;;;5.13;;
16127;SDS011;8168;49.036;7.690;2023-06-26T03:06:32;5.90;;;5.30;;
16127;SDS011;8168;49.036;7.690;2023-06-26T03:09:02;6.77;;;5.47;;
16127;SDS011;8168;49.036;7.690;2023-06-26T03:11:33;6.23;;;5.30;;
16127;SDS011;8168;49.036;7.690;2023-06-26T03:14:04;6.13;;;4.97;;
16127;SDS011;8168;49.036;7.690;2023-06-26T03:16:34;5.67;;;5.10;;
16127;SDS011;8168;49.036;7.690;2023-06-26T03:19:05;6.67;;;4.73;;
16127;SDS011;8168;49.036;7.690;2023-06-26T03:21:36;6.90;;;5.70;;
16127;SDS011;8168;49.036;7.690;2023-06-26T03:24:06;6.13;;;5.40;;
16127;SDS011;8168;49.036;7.690;2023-06-26T03:26:37;6.10;;;5.33;;
16127;SDS011;8168;49.036;7.690;2023-06-26T03:29:08;6.17;;;5.20;;
16127;SDS011;8168;49.036;7.690;2023-06-26T03:31:38;6.20;;;5.40;;
16127;SDS011;8168;49.036;7.690;2023-06-26T03:34:09;6.53;;;5.20;;
16127;SDS011;8168;49.036;7.690;2023-06-26T03:36:40;6.37;;;5.40;;
16127;SDS011;8168;49.036;7.690;2023-06-26T03:39:11;6.33;;;5.33;;
16127;SDS011;8168;49.036;7.690;2023-06-26T03:41:41;9.50;;;5.30;;
16127;SDS011;8168;49.036;7.690;2023-06-26T03:44:12;6.27;;;5.50;;
16127;SDS011;8168;49.036;7.690;2023-06-26T03:46:43;6.60;;;5.40;;
16127;SDS011;8168;49.036;7.690;2023-06-26T03:49:13;8.17;;;5.23;;
16127;SDS011;8168;49.036;7.690;2023-06-26T03:51:44;5.40;;;4.90;;
16127;SDS011;8168;49.036;7.690;2023-06-26T03:54:15;6.10;;;5.50;;
16127;SDS011;8168;49.036;7.690;2023-06-26T03:56:46;5.90;;;5.17;;
16127;SDS011;8168;49.036;7.690;2023-06-26T03:59:16;6.63;;;5.47;;
16127;SDS011;8168;49.036;7.690;2023-06-26T04:01:47;6.30;;;5.17;;
16127;SDS011;8168;49.036;7.690;2023-06-26T04:04:18;6.40;;;5.30;;
16127;SDS011;8168;49.036;7.690;2023-06-26T04:06:48;6.13;;;5.10;;
16127;SDS011;8168;49.036;7.690;2023-06-26T04:09:19;6.13;;;4.70;;
16127;SDS011;8168;49.036;7.690;2023-06-26T04:11:49;5.63;;;5.10;;
16127;SDS011;8168;49.036;7.690;2023-06-26T04:14:20;6.20;;;5.30;;
16127;SDS011;8168;49.036;7.690;2023-06-26T04:16:51;6.37;;;4.73;;
16127;SDS011;8168;49.036;7.690;2023-06-26T04:19:21;7.43;;;5.07;;
16127;SDS011;8168;49.036;7.690;2023-06-26T04:21:52;6.63;;;5.20;;
16127;SDS011;8168;49.036;7.690;2023-06-26T04:24:22;6.00;;;5.30;;
16127;SDS011;8168;49.036;7.690;2023-06-26T04:26:53;6.23;;;5.63;;
16127;SDS011;8168;49.036;7.690;2023-06-26T04:29:27;6.10;;;4.83;;
16127;SDS011;8168;49.036;7.690;2023-06-26T04:31:57;5.90;;;5.30;;
16127;SDS011;8168;49.036;7.690;2023-06-26T04:34:28;6.47;;;5.60;;
16127;SDS011;8168;49.036;7.690;2023-06-26T04:37:02;6.97;;;6.03;;
16127;SDS011;8168;49.036;7.690;2023-06-26T04:39:36;6.10;;;5.17;;
16127;SDS011;8168;49.036;7.690;2023-06-26T04:42:07;10.13;;;6.30;;
16127;SDS011;8168;49.036;7.690;2023-06-26T04:44:38;6.43;;;5.10;;
16127;SDS011;8168;49.036;7.690;2023-06-26T04:47:10;7.67;;;5.33;;
16127;SDS011;8168;49.036;7.690;2023-06-26T04:49:41;6.37;;;5.37;;
16127;SDS011;8168;49.036;7.690;2023-06-26T04:52:15;6.43;;;5.73;;
16127;SDS011;8168;49.036;7.690;2023-06-26T04:54:46;7.23;;;5.67;;
16127;SDS011;8168;49.036;7.690;2023-06-26T04:57:17;6.83;;;5.83;;
16127;SDS011;8168;49.036;7.690;2023-06-26T04:59:48;6.80;;;5.57;;
16127;SDS011;8168;49.036;7.690;2023-06-26T05:02:19;7.87;;;6.10;;
16127;SDS011;8168;49.036;7.690;2023-06-26T05:04:49;7.13;;;5.50;;
16127;SDS011;8168;49.036;7.690;2023-06-26T05:07:20;6.70;;;5.57;;
16127;SDS011;8168;49.036;7.690;2023-06-26T05:09:50;7.90;;;5.83;;
16127;SDS011;8168;49.036;7.690;2023-06-26T05:12:21;6.20;;;5.60;;
16127;SDS011;8168;49.036;7.690;2023-06-26T05:14:52;6.90;;;6.00;;
16127;SDS011;8168;49.036;7.690;2023-06-26T05:17:22;6.87;;;5.60;;
16127;SDS011;8168;49.036;7.690;2023-06-26T05:19:53;6.80;;;5.47;;
16127;SDS011;8168;49.036;7.690;2023-06-26T05:22:23;6.53;;;5.13;;
16127;SDS011;8168;49.036;7.690;2023-06-26T05:24:55;7.10;;;5.43;;
16127;SDS011;8168;49.036;7.690;2023-06-26T05:27:30;7.53;;;6.17;;
16127;SDS011;8168;49.036;7.690;2023-06-26T05:30:01;6.63;;;5.73;;
16127;SDS011;8168;49.036;7.690;2023-06-26T05:32:34;6.63;;;5.70;;
16127;SDS011;8168;49.036;7.690;2023-06-26T05:35:06;6.23;;;5.57;;
16127;SDS011;8168;49.036;7.690;2023-06-26T05:37:37;6.87;;;5.80;;
16127;SDS011;8168;49.036;7.690;2023-06-26T05:40:08;7.73;;;5.67;;
16127;SDS011;8168;49.036;7.690;2023-06-26T05:42:39;6.23;;;5.17;;
16127;SDS011;8168;49.036;7.690;2023-06-26T05:45:10;7.00;;;5.80;;
16127;SDS011;8168;49.036;7.690;2023-06-26T05:47:41;6.37;;;5.67;;
16127;SDS011;8168;49.036;7.690;2023-06-26T05:50:12;7.07;;;5.67;;
16127;SDS011;8168;49.036;7.690;2023-06-26T05:52:43;6.53;;;5.40;;
16127;SDS011;8168;49.036;7.690;2023-06-26T05:55:14;6.77;;;5.10;;
16127;SDS011;8168;49.036;7.690;2023-06-26T05:57:46;6.43;;;5.57;;
16127;SDS011;8168;49.036;7.690;2023-06-26T06:00:17;6.60;;;5.83;;
16127;SDS011;8168;49.036;7.690;2023-06-26T06:02:48;8.83;;;5.80;;
16127;SDS011;8168;49.036;7.690;2023-06-26T06:05:18;6.57;;;5.73;;
16127;SDS011;8168;49.036;7.690;2023-06-26T06:07:50;7.07;;;5.37;;
16127;SDS011;8168;49.036;7.690;2023-06-26T06:10:20;6.37;;;5.50;;
16127;SDS011;8168;49.036;7.690;2023-06-26T06:12:54;6.93;;;5.63;;
16127;SDS011;8168;49.036;7.690;2023-06-26T06:15:24;6.80;;;5.57;;
16127;SDS011;8168;49.036;7.690;2023-06-26T06:17:55;6.37;;;5.67;;
16127;SDS011;8168;49.036;7.690;2023-06-26T06:20:26;6.37;;;5.67;;
16127;SDS011;8168;49.036;7.690;2023-06-26T06:22:56;6.50;;;5.30;;
16127;SDS011;8168;49.036;7.690;2023-06-26T06:25:27;5.67;;;5.10;;
16127;SDS011;8168;49.036;7.690;2023-06-26T06:27:57;7.33;;;5.60;;
16127;SDS011;8168;49.036;7.690;2023-06-26T06:30:28;7.63;;;5.40;;
16127;SDS011;8168;49.036;7.690;2023-06-26T06:32:58;6.73;;;5.27;;
16127;SDS011;8168;49.036;7.690;2023-06-26T06:35:29;7.53;;;5.60;;
16127;SDS011;8168;49.036;7.690;2023-06-26T06:38:00;7.47;;;5.70;;
16127;SDS011;8168;49.036;7.690;2023-06-26T06:40:30;5.93;;;5.30;;
16127;SDS011;8168;49.036;7.690;2023-06-26T06:43:01;6.37;;;5.67;;
16127;SDS011;8168;49.036;7.690;2023-06-26T06:45:32;4.40;;;3.97;;
16127;SDS011;8168;49.036;7.690;2023-06-26T06:48:02;5.83;;;4.20;;
16127;SDS011;8168;49.036;7.690;2023-06-26T06:50:33;8.57;;;4.30;;
16127;SDS011;8168;49.036;7.690;2023-06-26T06:53:04;6.70;;;4.77;;
16127;SDS011;8168;49.036;7.690;2023-06-26T06:55:35;5.90;;;4.77;;
16127;SDS011;8168;49.036;7.690;2023-06-26T06:58:05;4.73;;;4.23;;
16127;SDS011;8168;49.036;7.690;2023-06-26T07:00:36;4.90;;;4.43;;
16127;SDS011;8168;49.036;7.690;2023-06-26T07:03:07;5.23;;;4.73;;
16127;SDS011;8168;49.036;7.690;2023-06-26T07:05:37;5.17;;;4.40;;
16127;SDS011;8168;49.036;7.690;2023-06-26T07:08:08;4.78;;;4.28;;
16127;SDS011;8168;49.036;7.690;2023-06-26T07:10:38;4.82;;;4.32;;
16127;SDS011;8168;49.036;7.690;2023-06-26T07:13:09;6.37;;;5.10;;
16127;SDS011;8168;49.036;7.690;2023-06-26T07:15:40;5.85;;;4.43;;
16127;SDS011;8168;49.036;7.690;2023-06-26T07:18:10;4.97;;;4.50;;
16127;SDS011;8168;49.036;7.690;2023-06-26T07:20:41;4.93;;;4.43;;
16127;SDS011;8168;49.036;7.690;2023-06-26T07:23:12;5.23;;;4.27;;
16127;SDS011;8168;49.036;7.690;2023-06-26T07:25:42;6.13;;;4.47;;
16127;SDS011;8168;49.036;7.690;2023-06-26T07:28:13;5.20;;;4.55;;
16127;SDS011;8168;49.036;7.690;2023-06-26T07:30:44;4.55;;;3.95;;
16127;SDS011;8168;49.036;7.690;2023-06-26T07:33:14;4.85;;;4.30;;
16127;SDS011;8168;49.036;7.690;2023-06-26T07:35:45;5.07;;;4.57;;
16127;SDS011;8168;49.036;7.690;2023-06-26T07:38:15;4.97;;;4.47;;
16127;SDS011;8168;49.036;7.690;2023-06-26T07:40:46;4.72;;;3.95;;
16127;SDS011;8168;49.036;7.690;2023-06-26T07:43:16;5.07;;;4.57;;
16127;SDS011;8168;49.036;7.690;2023-06-26T07:45:47;6.15;;;3.85;;
16127;SDS011;8168;49.036;7.690;2023-06-26T07:48:18;5.25;;;4.72;;
16127;SDS011;8168;49.036;7.690;2023-06-26T07:50:49;5.55;;;4.80;;
16127;SDS011;8168;49.036;7.690;2023-06-26T07:53:20;5.88;;;5.28;;
16127;SDS011;8168;49.036;7.690;2023-06-26T07:55:51;6.88;;;4.57;;
16127;SDS011;8168;49.036;7.690;2023-06-26T07:58:22;5.60;;;4.55;;
16127;SDS011;8168;49.036;7.690;2023-06-26T08:00:52;6.38;;;4.80;;
16127;SDS011;8168;49.036;7.690;2023-06-26T08:03:23;5.55;;;5.05;;
16127;SDS011;8168;49.036;7.690;2023-06-26T08:05:53;6.18;;;5.07;;
16127;SDS011;8168;49.036;7.690;2023-06-26T08:08:24;6.32;;;4.85;;
16127;SDS011;8168;49.036;7.690;2023-06-26T08:10:55;5.68;;;4.70;;
16127;SDS011;8168;49.036;7.690;2023-06-26T08:13:25;6.63;;;4.72;;
16127;SDS011;8168;49.036;7.690;2023-06-26T08:15:56;6.05;;;5.15;;
16127;SDS011;8168;49.036;7.690;2023-06-26T08:18:26;6.38;;;5.50;;
16127;SDS011;8168;49.036;7.690;2023-06-26T08:20:57;5.80;;;5.22;;
16127;SDS011;8168;49.036;7.690;2023-06-26T08:23:27;5.72;;;5.07;;
16127;SDS011;8168;49.036;7.690;2023-06-26T08:25:58;5.63;;;5.13;;
16127;SDS011;8168;49.036;7.690;2023-06-26T08:28:29;5.25;;;4.75;;
16127;SDS011;8168;49.036;7.690;2023-06-26T08:31:02;5.10;;;4.47;;
16127;SDS011;8168;49.036;7.690;2023-06-26T08:33:33;7.25;;;4.85;;
16127;SDS011;8168;49.036;7.690;2023-06-26T08:36:04;5.30;;;4.82;;
16127;SDS011;8168;49.036;7.690;2023-06-26T08:38:34;6.82;;;5.38;;
16127;SDS011;8168;49.036;7.690;2023-06-26T08:41:05;6.00;;;5.38;;
16127;SDS011;8168;49.036;7.690;2023-06-26T08:43:36;6.32;;;5.70;;
16127;SDS011;8168;49.036;7.690;2023-06-26T08:46:07;6.22;;;4.80;;
16127;SDS011;8168;49.036;7.690;2023-06-26T08:48:37;5.43;;;4.85;;
16127;SDS011;8168;49.036;7.690;2023-06-26T08:51:12;5.55;;;4.68;;
16127;SDS011;8168;49.036;7.690;2023-06-26T08:53:50;5.82;;;5.22;;
16127;SDS011;8168;49.036;7.690;2023-06-26T08:56:31;6.03;;;4.90;;
16127;SDS011;8168;49.036;7.690;2023-06-26T08:59:07;4.75;;;3.70;;
16127;SDS011;8168;49.036;7.690;2023-06-26T09:01:40;4.85;;;4.28;;
16127;SDS011;8168;49.036;7.690;2023-06-26T09:04:11;4.75;;;4.18;;
16127;SDS011;8168;49.036;7.690;2023-06-26T09:06:42;4.13;;;3.70;;
16127;SDS011;8168;49.036;7.690;2023-06-26T09:09:14;5.15;;;4.00;;
16127;SDS011;8168;49.036;7.690;2023-06-26T09:11:45;3.83;;;3.45;;
16127;SDS011;8168;49.036;7.690;2023-06-26T09:14:18;6.97;;;3.60;;
16127;SDS011;8168;49.036;7.690;2023-06-26T09:16:49;4.45;;;3.88;;
16127;SDS011;8168;49.036;7.690;2023-06-26T09:19:20;3.88;;;3.50;;
16127;SDS011;8168;49.036;7.690;2023-06-26T09:21:52;3.60;;;3.25;;
16127;SDS011;8168;49.036;7.690;2023-06-26T09:24:24;4.18;;;3.78;;
16127;SDS011;8168;49.036;7.690;2023-06-26T09:26:55;4.90;;;3.60;;
16127;SDS011;8168;49.036;7.690;2023-06-26T09:29:27;4.10;;;3.70;;
16127;SDS011;8168;49.036;7.690;2023-06-26T09:31:59;3.67;;;3.22;;
16127;SDS011;8168;49.036;7.690;2023-06-26T09:34:30;5.60;;;3.60;;
16127;SDS011;8168;49.036;7.690;2023-06-26T09:37:02;3.70;;;3.40;;
16127;SDS011;8168;49.036;7.690;2023-06-26T09:39:33;4.68;;;3.45;;
16127;SDS011;8168;49.036;7.690;2023-06-26T09:42:04;2.88;;;2.63;;
16127;SDS011;8168;49.036;7.690;2023-06-26T09:44:36;3.53;;;3.05;;
16127;SDS011;8168;49.036;7.690;2023-06-26T09:47:16;3.97;;;3.30;;
16127;SDS011;8168;49.036;7.690;2023-06-26T09:49:48;3.10;;;2.80;;
16127;SDS011;8168;49.036;7.690;2023-06-26T09:52:19;3.70;;;3.17;;
16127;SDS011;8168;49.036;7.690;2023-06-26T09:54:49;4.35;;;3.45;;
16127;SDS011;8168;49.036;7.690;2023-06-26T09:57:20;8.93;;;3.85;;
16127;SDS011;8168;49.036;7.690;2023-06-26T09:59:51;3.70;;;3.40;;
16127;SDS011;8168;49.036;7.690;2023-06-26T10:02:22;4.78;;;3.38;;
16127;SDS011;8168;49.036;7.690;2023-06-26T10:04:53;3.90;;;3.22;;
16127;SDS011;8168;49.036;7.690;2023-06-26T10:07:24;3.90;;;3.25;;
16127;SDS011;8168;49.036;7.690;2023-06-26T10:09:55;3.60;;;3.00;;
16127;SDS011;8168;49.036;7.690;2023-06-26T10:12:27;6.68;;;3.22;;
16127;SDS011;8168;49.036;7.690;2023-06-26T10:14:59;4.03;;;3.33;;
16127;SDS011;8168;49.036;7.690;2023-06-26T10:17:34;4.72;;;3.42;;
16127;SDS011;8168;49.036;7.690;2023-06-26T10:20:08;4.18;;;3.20;;
16127;SDS011;8168;49.036;7.690;2023-06-26T10:22:42;6.68;;;3.38;;
16127;SDS011;8168;49.036;7.690;2023-06-26T10:25:18;4.30;;;3.20;;
16127;SDS011;8168;49.036;7.690;2023-06-26T10:27:54;4.75;;;3.40;;
16127;SDS011;8168;49.036;7.690;2023-06-26T10:30:33;2.65;;;2.42;;
16127;SDS011;8168;49.036;7.690;2023-06-26T10:33:06;3.15;;;2.85;;
16127;SDS011;8168;49.036;7.690;2023-06-26T10:35:45;5.45;;;2.83;;
16127;SDS011;8168;49.036;7.690;2023-06-26T10:38:16;3.47;;;3.00;;
16127;SDS011;8168;49.036;7.690;2023-06-26T10:40:47;3.22;;;2.28;;
16127;SDS011;8168;49.036;7.690;2023-06-26T10:43:29;2.92;;;2.50;;
16127;SDS011;8168;49.036;7.690;2023-06-26T10:46:00;2.65;;;2.45;;
16127;SDS011;8168;49.036;7.690;2023-06-26T10:48:30;3.50;;;2.38;;
16127;SDS011;8168;49.036;7.690;2023-06-26T10:51:13;3.63;;;2.88;;
16127;SDS011;8168;49.036;7.690;2023-06-26T10:53:47;2.63;;;2.33;;
16127;SDS011;8168;49.036;7.690;2023-06-26T10:59:14;2.83;;;2.15;;
16127;SDS011;8168;49.036;7.690;2023-06-26T11:02:04;2.63;;;2.40;;
16127;SDS011;8168;49.036;7.690;2023-06-26T11:04:36;2.13;;;1.92;;
16127;SDS011;8168;49.036;7.690;2023-06-26T11:07:17;2.70;;;2.40;;
16127;SDS011;8168;49.036;7.690;2023-06-26T11:09:56;3.13;;;2.83;;
16127;SDS011;8168;49.036;7.690;2023-06-26T11:12:37;2.47;;;2.28;;
16127;SDS011;8168;49.036;7.690;2023-06-26T11:15:12;4.32;;;2.50;;
16127;SDS011;8168;49.036;7.690;2023-06-26T11:17:44;3.63;;;2.60;;
16127;SDS011;8168;49.036;7.690;2023-06-26T11:20:16;2.50;;;2.08;;
16127;SDS011;8168;49.036;7.690;2023-06-26T11:22:47;3.75;;;2.40;;
16127;SDS011;8168;49.036;7.690;2023-06-26T11:25:22;2.35;;;2.15;;
16127;SDS011;8168;49.036;7.690;2023-06-26T11:27:53;3.40;;;2.53;;
16127;SDS011;8168;49.036;7.690;2023-06-26T11:30:25;3.78;;;2.55;;
16127;SDS011;8168;49.036;7.690;2023-06-26T11:33:03;2.72;;;2.53;;
16127;SDS011;8168;49.036;7.690;2023-06-26T11:35:42;5.82;;;2.60;;
16127;SDS011;8168;49.036;7.690;2023-06-26T11:38:13;2.60;;;2.13;;
16127;SDS011;8168;49.036;7.690;2023-06-26T11:40:44;2.75;;;2.53;;
16127;SDS011;8168;49.036;7.690;2023-06-26T11:43:14;3.63;;;2.60;;
16127;SDS011;8168;49.036;7.690;2023-06-26T11:45:45;4.25;;;2.70;;
16127;SDS011;8168;49.036;7.690;2023-06-26T11:48:16;6.35;;;3.45;;
16127;SDS011;8168;49.036;7.690;2023-06-26T11:50:50;5.28;;;2.80;;
16127;SDS011;8168;49.036;7.690;2023-06-26T11:53:24;4.45;;;3.92;;
16127;SDS011;8168;49.036;7.690;2023-06-26T11:55:54;6.57;;;3.30;;
16127;SDS011;8168;49.036;7.690;2023-06-26T11:58:25;4.85;;;4.15;;
16127;SDS011;8168;49.036;7.690;2023-06-26T12:00:55;5.68;;;3.92;;
16127;SDS011;8168;49.036;7.690;2023-06-26T12:03:26;6.20;;;4.00;;
16127;SDS011;8168;49.036;7.690;2023-06-26T12:05:57;3.90;;;3.03;;
16127;SDS011;8168;49.036;7.690;2023-06-26T12:08:27;6.38;;;3.53;;
16127;SDS011;8168;49.036;7.690;2023-06-26T12:10:58;5.95;;;4.40;;
16127;SDS011;8168;49.036;7.690;2023-06-26T12:13:29;4.38;;;3.90;;
16127;SDS011;8168;49.036;7.690;2023-06-26T12:16:00;4.13;;;3.40;;
16127;SDS011;8168;49.036;7.690;2023-06-26T12:18:36;4.43;;;4.00;;
16127;SDS011;8168;49.036;7.690;2023-06-26T12:21:07;4.22;;;3.78;;
16127;SDS011;8168;49.036;7.690;2023-06-26T12:23:40;4.50;;;3.65;;
16127;SDS011;8168;49.036;7.690;2023-06-26T12:26:18;6.57;;;3.42;;
16127;SDS011;8168;49.036;7.690;2023-06-26T12:28:49;5.18;;;3.40;;
16127;SDS011;8168;49.036;7.690;2023-06-26T12:31:20;4.97;;;3.63;;
16127;SDS011;8168;49.036;7.690;2023-06-26T12:33:51;4.38;;;3.30;;
16127;SDS011;8168;49.036;7.690;2023-06-26T12:36:22;5.18;;;3.78;;
16127;SDS011;8168;49.036;7.690;2023-06-26T12:38:53;7.88;;;4.25;;
16127;SDS011;8168;49.036;7.690;2023-06-26T12:41:24;4.78;;;3.85;;
16127;SDS011;8168;49.036;7.690;2023-06-26T12:43:55;4.35;;;3.72;;
16127;SDS011;8168;49.036;7.690;2023-06-26T12:46:33;4.25;;;3.72;;
16127;SDS011;8168;49.036;7.690;2023-06-26T12:49:05;4.90;;;3.70;;
16127;SDS011;8168;49.036;7.690;2023-06-26T12:51:35;7.82;;;4.30;;
16127;SDS011;8168;49.036;7.690;2023-06-26T12:54:06;4.40;;;3.55;;
16127;SDS011;8168;49.036;7.690;2023-06-26T12:56:37;4.68;;;3.53;;
16127;SDS011;8168;49.036;7.690;2023-06-26T12:59:08;3.40;;;3.08;;
16127;SDS011;8168;49.036;7.690;2023-06-26T13:01:38;3.88;;;2.65;;
16127;SDS011;8168;49.036;7.690;2023-06-26T13:04:09;4.53;;;2.95;;
16127;SDS011;8168;49.036;7.690;2023-06-26T13:06:40;4.00;;;2.22;;
16127;SDS011;8168;49.036;7.690;2023-06-26T13:09:10;3.88;;;2.75;;
16127;SDS011;8168;49.036;7.690;2023-06-26T13:11:42;3.42;;;2.33;;
16127;SDS011;8168;49.036;7.690;2023-06-26T13:14:13;3.47;;;2.40;;
16127;SDS011;8168;49.036;7.690;2023-06-26T13:16:43;1.80;;;1.70;;
16127;SDS011;8168;49.036;7.690;2023-06-26T13:19:14;4.15;;;2.30;;
16127;SDS011;8168;49.036;7.690;2023-06-26T13:21:45;3.75;;;1.92;;
16127;SDS011;8168;49.036;7.690;2023-06-26T13:24:15;6.45;;;2.10;;
16127;SDS011;8168;49.036;7.690;2023-06-26T13:26:46;2.00;;;1.45;;
16127;SDS011;8168;49.036;7.690;2023-06-26T13:29:16;1.50;;;1.40;;
16127;SDS011;8168;49.036;7.690;2023-06-26T13:31:47;2.15;;;1.60;;
16127;SDS011;8168;49.036;7.690;2023-06-26T13:34:21;1.80;;;1.52;;
16127;SDS011;8168;49.036;7.690;2023-06-26T13:36:53;1.27;;;1.17;;
16127;SDS011;8168;49.036;7.690;2023-06-26T13:39:24;2.53;;;1.40;;
16127;SDS011;8168;49.036;7.690;2023-06-26T13:41:55;1.63;;;1.20;;
16127;SDS011;8168;49.036;7.690;2023-06-26T13:44:25;1.30;;;1.20;;
16127;SDS011;8168;49.036;7.690;2023-06-26T13:46:56;1.65;;;1.15;;
16127;SDS011;8168;49.036;7.690;2023-06-26T13:49:27;1.42;;;1.33;;
16127;SDS011;8168;49.036;7.690;2023-06-26T13:51:58;2.20;;;1.30;;
16127;SDS011;8168;49.036;7.690;2023-06-26T13:54:28;3.17;;;1.30;;
16127;SDS011;8168;49.036;7.690;2023-06-26T13:56:59;2.25;;;1.23;;
16127;SDS011;8168;49.036;7.690;2023-06-26T13:59:32;1.60;;;1.20;;
16127;SDS011;8168;49.036;7.690;2023-06-26T14:02:03;1.20;;;1.10;;
16127;SDS011;8168;49.036;7.690;2023-06-26T14:04:35;1.85;;;1.23;;
16127;SDS011;8168;49.036;7.690;2023-06-26T14:07:07;1.98;;;1.25;;
16127;SDS011;8168;49.036;7.690;2023-06-26T14:09:37;2.45;;;1.65;;
16127;SDS011;8168;49.036;7.690;2023-06-26T14:12:08;2.35;;;1.10;;
16127;SDS011;8168;49.036;7.690;2023-06-26T14:14:39;1.83;;;1.20;;
16127;SDS011;8168;49.036;7.690;2023-06-26T14:17:09;2.88;;;1.35;;
16127;SDS011;8168;49.036;7.690;2023-06-26T14:19:45;1.80;;;1.50;;
16127;SDS011;8168;49.036;7.690;2023-06-26T14:22:16;2.25;;;1.15;;
16127;SDS011;8168;49.036;7.690;2023-06-26T14:24:47;4.45;;;1.50;;
16127;SDS011;8168;49.036;7.690;2023-06-26T14:27:19;1.17;;;1.08;;
16127;SDS011;8168;49.036;7.690;2023-06-26T14:29:49;4.45;;;1.20;;
16127;SDS011;8168;49.036;7.690;2023-06-26T14:32:20;1.15;;;0.95;;
16127;SDS011;8168;49.036;7.690;2023-06-26T14:34:50;1.58;;;1.23;;
16127;SDS011;8168;49.036;7.690;2023-06-26T14:37:21;1.30;;;1.20;;
16127;SDS011;8168;49.036;7.690;2023-06-26T14:39:52;2.45;;;1.92;;
16127;SDS011;8168;49.036;7.690;2023-06-26T14:42:23;5.25;;;3.58;;
16127;SDS011;8168;49.036;7.690;2023-06-26T14:44:53;2.78;;;2.15;;
16127;SDS011;8168;49.036;7.690;2023-06-26T14:47:24;3.72;;;1.30;;
16127;SDS011;8168;49.036;7.690;2023-06-26T14:49:54;1.95;;;1.48;;
16127;SDS011;8168;49.036;7.690;2023-06-26T14:52:25;2.92;;;1.38;;
16127;SDS011;8168;49.036;7.690;2023-06-26T14:54:55;3.10;;;1.30;;
16127;SDS011;8168;49.036;7.690;2023-06-26T14:57:26;1.42;;;0.90;;
16127;SDS011;8168;49.036;7.690;2023-06-26T14:59:57;1.13;;;1.00;;
16127;SDS011;8168;49.036;7.690;2023-06-26T15:02:27;1.30;;;1.20;;
16127;SDS011;8168;49.036;7.690;2023-06-26T15:04:58;1.90;;;1.15;;
16127;SDS011;8168;49.036;7.690;2023-06-26T15:07:28;1.95;;;1.30;;
16127;SDS011;8168;49.036;7.690;2023-06-26T15:09:59;1.27;;;1.17;;
16127;SDS011;8168;49.036;7.690;2023-06-26T15:12:30;3.00;;;1.55;;
16127;SDS011;8168;49.036;7.690;2023-06-26T15:15:00;4.28;;;1.85;;
16127;SDS011;8168;49.036;7.690;2023-06-26T15:17:31;5.07;;;1.77;;
16127;SDS011;8168;49.036;7.690;2023-06-26T15:20:01;2.50;;;1.88;;
16127;SDS011;8168;49.036;7.690;2023-06-26T15:22:32;2.17;;;1.73;;
16127;SDS011;8168;49.036;7.690;2023-06-26T15:25:03;3.95;;;1.30;;
16127;SDS011;8168;49.036;7.690;2023-06-26T15:27:34;2.10;;;1.30;;
16127;SDS011;8168;49.036;7.690;2023-06-26T15:30:04;4.13;;;1.83;;
16127;SDS011;8168;49.036;7.690;2023-06-26T15:32:36;2.10;;;1.45;;
16127;SDS011;8168;49.036;7.690;2023-06-26T15:35:07;1.27;;;1.17;;
16127;SDS011;8168;49.036;7.690;2023-06-26T15:37:38;4.13;;;1.40;;
16127;SDS011;8168;49.036;7.690;2023-06-26T15:40:09;3.92;;;1.25;;
16127;SDS011;8168;49.036;7.690;2023-06-26T15:42:45;1.20;;;1.10;;
16127;SDS011;8168;49.036;7.690;2023-06-26T15:45:17;3.90;;;1.38;;